sensor_id;sensor_type;location;lat;lon;timestamp;P1;durP1;ratioP1;P2;durP2;ratioP2
1475;SDS011;730;48.870;12.542;2023-07-02T00:01:54;3.10;;;0.90;;
1475;SDS011;730;48.870;12.542;2023-07-02T00:04:20;1.30;;;0.90;;
1475;SDS011;730;48.870;12.542;2023-07-02T00:06:46;1.20;;;0.60;;
1475;SDS011;730;48.870;12.542;2023-07-02T00:09:13;1.10;;;0.70;;
1475;SDS011;730;48.870;12.542;2023-07-02T00:11:41;1.60;;;1.20;;
1475;SDS011;730;48.870;12.542;2023-07-02T00:14:09;1.30;;;0.80;;
1475;SDS011;730;48.870;12.542;2023-07-02T00:16:37;1.10;;;0.70;;
1475;SDS011;730;48.870;12.542;2023-07-02T00:19:05;1.20;;;0.90;;
1475;SDS011;730;48.870;12.542;2023-07-02T00:21:31;1.77;;;0.93;;
1475;SDS011;730;48.870;12.542;2023-07-02T00:23:58;1.10;;;0.90;;
1475;SDS011;730;48.870;12.542;2023-07-02T00:26:25;1.30;;;0.80;;
1475;SDS011;730;48.870;12.542;2023-07-02T00:28:53;1.50;;;1.00;;
1475;SDS011;730;48.870;12.542;2023-07-02T00:31:20;2.30;;;1.40;;
1475;SDS011;730;48.870;12.542;2023-07-02T00:33:47;1.60;;;1.13;;
1475;SDS011;730;48.870;12.542;2023-07-02T00:36:13;1.50;;;1.00;;
1475;SDS011;730;48.870;12.542;2023-07-02T00:38:44;2.97;;;2.67;;
1475;SDS011;730;48.870;12.542;2023-07-02T00:41:12;1.10;;;0.80;;
1475;SDS011;730;48.870;12.542;2023-07-02T00:43:45;2.20;;;1.00;;
1475;SDS011;730;48.870;12.542;2023-07-02T00:46:14;1.23;;;0.80;;
1475;SDS011;730;48.870;12.542;2023-07-02T00:48:47;2.07;;;1.00;;
1475;SDS011;730;48.870;12.542;2023-07-02T00:51:16;1.50;;;1.03;;
1475;SDS011;730;48.870;12.542;2023-07-02T00:53:44;1.30;;;1.10;;
1475;SDS011;730;48.870;12.542;2023-07-02T00:56:13;2.87;;;1.47;;
1475;SDS011;730;48.870;12.542;2023-07-02T00:58:41;3.00;;;1.20;;
1475;SDS011;730;48.870;12.542;2023-07-02T01:01:14;1.70;;;1.30;;
1475;SDS011;730;48.870;12.542;2023-07-02T01:03:54;1.97;;;1.27;;
1475;SDS011;730;48.870;12.542;2023-07-02T01:06:28;1.67;;;1.50;;
1475;SDS011;730;48.870;12.542;2023-07-02T01:08:57;1.90;;;1.23;;
1475;SDS011;730;48.870;12.542;2023-07-02T01:11:28;2.60;;;1.53;;
1475;SDS011;730;48.870;12.542;2023-07-02T01:14:04;1.80;;;1.70;;
1475;SDS011;730;48.870;12.542;2023-07-02T01:16:34;1.80;;;1.60;;
1475;SDS011;730;48.870;12.542;2023-07-02T01:19:02;2.40;;;2.20;;
1475;SDS011;730;48.870;12.542;2023-07-02T01:21:31;3.30;;;1.90;;
1475;SDS011;730;48.870;12.542;2023-07-02T01:23:58;2.87;;;2.10;;
1475;SDS011;730;48.870;12.542;2023-07-02T01:26:29;2.80;;;2.60;;
1475;SDS011;730;48.870;12.542;2023-07-02T01:28:56;3.00;;;2.77;;
1475;SDS011;730;48.870;12.542;2023-07-02T01:31:22;2.30;;;2.10;;
1475;SDS011;730;48.870;12.542;2023-07-02T01:33:51;3.50;;;2.80;;
1475;SDS011;730;48.870;12.542;2023-07-02T01:36:18;2.47;;;2.10;;
1475;SDS011;730;48.870;12.542;2023-07-02T01:38:44;2.30;;;2.07;;
1475;SDS011;730;48.870;12.542;2023-07-02T01:41:10;2.60;;;2.40;;
1475;SDS011;730;48.870;12.542;2023-07-02T01:43:36;3.40;;;2.33;;
1475;SDS011;730;48.870;12.542;2023-07-02T01:46:02;4.30;;;2.50;;
1475;SDS011;730;48.870;12.542;2023-07-02T01:48:28;3.67;;;2.47;;
1475;SDS011;730;48.870;12.542;2023-07-02T01:50:54;3.90;;;2.30;;
1475;SDS011;730;48.870;12.542;2023-07-02T01:53:20;2.60;;;2.40;;
1475;SDS011;730;48.870;12.542;2023-07-02T01:55:53;26.17;;;23.60;;
1475;SDS011;730;48.870;12.542;2023-07-02T01:58:22;3.03;;;2.70;;
1475;SDS011;730;48.870;12.542;2023-07-02T02:00:49;3.40;;;2.73;;
1475;SDS011;730;48.870;12.542;2023-07-02T02:03:15;2.93;;;2.40;;
1475;SDS011;730;48.870;12.542;2023-07-02T02:05:41;4.17;;;2.40;;
1475;SDS011;730;48.870;12.542;2023-07-02T02:08:08;2.27;;;2.07;;
1475;SDS011;730;48.870;12.542;2023-07-02T02:10:34;2.40;;;2.20;;
1475;SDS011;730;48.870;12.542;2023-07-02T02:13:00;2.53;;;2.33;;
1475;SDS011;730;48.870;12.542;2023-07-02T02:15:26;2.17;;;1.97;;
1475;SDS011;730;48.870;12.542;2023-07-02T02:17:52;3.27;;;2.97;;
1475;SDS011;730;48.870;12.542;2023-07-02T02:20:18;5.20;;;2.90;;
1475;SDS011;730;48.870;12.542;2023-07-02T02:22:44;2.73;;;2.50;;
1475;SDS011;730;48.870;12.542;2023-07-02T02:25:10;2.60;;;1.93;;
1475;SDS011;730;48.870;12.542;2023-07-02T02:27:36;2.97;;;2.30;;
1475;SDS011;730;48.870;12.542;2023-07-02T02:30:03;2.60;;;2.40;;
1475;SDS011;730;48.870;12.542;2023-07-02T02:32:29;2.60;;;2.40;;
1475;SDS011;730;48.870;12.542;2023-07-02T02:34:56;2.60;;;2.40;;
1475;SDS011;730;48.870;12.542;2023-07-02T02:37:22;2.80;;;2.30;;
1475;SDS011;730;48.870;12.542;2023-07-02T02:39:49;3.07;;;2.37;;
1475;SDS011;730;48.870;12.542;2023-07-02T02:42:15;2.50;;;2.30;;
1475;SDS011;730;48.870;12.542;2023-07-02T02:44:41;2.40;;;2.20;;
1475;SDS011;730;48.870;12.542;2023-07-02T02:47:08;3.07;;;2.60;;
1475;SDS011;730;48.870;12.542;2023-07-02T02:49:36;3.70;;;2.80;;
1475;SDS011;730;48.870;12.542;2023-07-02T02:52:04;3.67;;;2.57;;
1475;SDS011;730;48.870;12.542;2023-07-02T02:54:30;2.57;;;2.20;;
1475;SDS011;730;48.870;12.542;2023-07-02T02:56:56;4.67;;;2.77;;
1475;SDS011;730;48.870;12.542;2023-07-02T02:59:22;2.77;;;2.57;;
1475;SDS011;730;48.870;12.542;2023-07-02T03:01:48;2.37;;;2.17;;
1475;SDS011;730;48.870;12.542;2023-07-02T03:04:14;3.63;;;2.40;;
1475;SDS011;730;48.870;12.542;2023-07-02T03:06:40;2.73;;;2.53;;
1475;SDS011;730;48.870;12.542;2023-07-02T03:09:06;4.83;;;2.90;;
1475;SDS011;730;48.870;12.542;2023-07-02T03:11:32;3.40;;;2.50;;
1475;SDS011;730;48.870;12.542;2023-07-02T03:13:58;5.60;;;2.60;;
1475;SDS011;730;48.870;12.542;2023-07-02T03:16:24;3.07;;;2.77;;
1475;SDS011;730;48.870;12.542;2023-07-02T03:18:50;3.07;;;2.40;;
1475;SDS011;730;48.870;12.542;2023-07-02T03:21:17;3.40;;;3.03;;
1475;SDS011;730;48.870;12.542;2023-07-02T03:23:43;3.23;;;2.93;;
1475;SDS011;730;48.870;12.542;2023-07-02T03:26:09;3.10;;;2.80;;
1475;SDS011;730;48.870;12.542;2023-07-02T03:28:36;3.10;;;2.70;;
1475;SDS011;730;48.870;12.542;2023-07-02T03:31:02;2.83;;;2.30;;
1475;SDS011;730;48.870;12.542;2023-07-02T03:33:28;5.00;;;2.90;;
1475;SDS011;730;48.870;12.542;2023-07-02T03:35:54;2.50;;;2.30;;
1475;SDS011;730;48.870;12.542;2023-07-02T03:38:20;2.93;;;2.73;;
1475;SDS011;730;48.870;12.542;2023-07-02T03:40:46;2.77;;;2.37;;
1475;SDS011;730;48.870;12.542;2023-07-02T03:43:12;3.10;;;2.80;;
1475;SDS011;730;48.870;12.542;2023-07-02T03:45:38;2.63;;;2.43;;
1475;SDS011;730;48.870;12.542;2023-07-02T03:48:04;4.10;;;2.70;;
1475;SDS011;730;48.870;12.542;2023-07-02T03:50:30;3.00;;;2.70;;
1475;SDS011;730;48.870;12.542;2023-07-02T03:52:57;3.00;;;2.70;;
1475;SDS011;730;48.870;12.542;2023-07-02T03:55:23;4.50;;;2.80;;
1475;SDS011;730;48.870;12.542;2023-07-02T03:57:49;3.47;;;2.83;;
1475;SDS011;730;48.870;12.542;2023-07-02T04:00:16;5.17;;;2.83;;
1475;SDS011;730;48.870;12.542;2023-07-02T04:02:42;3.30;;;3.00;;
1475;SDS011;730;48.870;12.542;2023-07-02T04:05:08;2.90;;;2.33;;
1475;SDS011;730;48.870;12.542;2023-07-02T04:07:34;3.93;;;2.67;;
1475;SDS011;730;48.870;12.542;2023-07-02T04:10:00;2.77;;;2.30;;
1475;SDS011;730;48.870;12.542;2023-07-02T04:12:27;5.60;;;2.70;;
1475;SDS011;730;48.870;12.542;2023-07-02T04:14:54;2.57;;;2.20;;
1475;SDS011;730;48.870;12.542;2023-07-02T04:17:20;2.17;;;1.97;;
1475;SDS011;730;48.870;12.542;2023-07-02T04:19:46;2.97;;;2.67;;
1475;SDS011;730;48.870;12.542;2023-07-02T04:22:12;3.07;;;2.30;;
1475;SDS011;730;48.870;12.542;2023-07-02T04:24:38;3.70;;;3.20;;
1475;SDS011;730;48.870;12.542;2023-07-02T04:27:05;2.40;;;2.20;;
1475;SDS011;730;48.870;12.542;2023-07-02T04:29:31;2.83;;;2.53;;
1475;SDS011;730;48.870;12.542;2023-07-02T04:31:57;2.73;;;2.43;;
1475;SDS011;730;48.870;12.542;2023-07-02T04:34:23;4.23;;;2.33;;
1475;SDS011;730;48.870;12.542;2023-07-02T04:36:49;2.73;;;2.10;;
1475;SDS011;730;48.870;12.542;2023-07-02T04:39:15;4.73;;;2.20;;
1475;SDS011;730;48.870;12.542;2023-07-02T04:41:41;2.93;;;2.40;;
1475;SDS011;730;48.870;12.542;2023-07-02T04:44:07;3.70;;;2.00;;
1475;SDS011;730;48.870;12.542;2023-07-02T04:46:33;2.77;;;2.40;;
1475;SDS011;730;48.870;12.542;2023-07-02T04:49:00;4.93;;;2.40;;
1475;SDS011;730;48.870;12.542;2023-07-02T04:51:26;2.43;;;2.23;;
1475;SDS011;730;48.870;12.542;2023-07-02T04:53:52;2.53;;;2.33;;
1475;SDS011;730;48.870;12.542;2023-07-02T04:56:18;6.17;;;2.80;;
1475;SDS011;730;48.870;12.542;2023-07-02T04:58:44;3.10;;;2.80;;
1475;SDS011;730;48.870;12.542;2023-07-02T05:01:10;3.23;;;2.93;;
1475;SDS011;730;48.870;12.542;2023-07-02T05:03:37;2.23;;;2.03;;
1475;SDS011;730;48.870;12.542;2023-07-02T05:06:03;2.57;;;2.37;;
1475;SDS011;730;48.870;12.542;2023-07-02T05:08:29;2.50;;;2.10;;
1475;SDS011;730;48.870;12.542;2023-07-02T05:10:55;2.20;;;2.00;;
1475;SDS011;730;48.870;12.542;2023-07-02T05:13:21;2.70;;;2.40;;
1475;SDS011;730;48.870;12.542;2023-07-02T05:15:47;3.17;;;2.27;;
1475;SDS011;730;48.870;12.542;2023-07-02T05:18:14;2.53;;;2.13;;
1475;SDS011;730;48.870;12.542;2023-07-02T05:20:40;2.10;;;1.90;;
1475;SDS011;730;48.870;12.542;2023-07-02T05:23:06;4.83;;;2.80;;
1475;SDS011;730;48.870;12.542;2023-07-02T05:25:32;2.20;;;2.00;;
1475;SDS011;730;48.870;12.542;2023-07-02T05:27:59;2.20;;;2.00;;
1475;SDS011;730;48.870;12.542;2023-07-02T05:30:25;4.50;;;2.43;;
1475;SDS011;730;48.870;12.542;2023-07-02T05:32:51;5.20;;;2.80;;
1475;SDS011;730;48.870;12.542;2023-07-02T05:35:17;2.80;;;1.87;;
1475;SDS011;730;48.870;12.542;2023-07-02T05:37:43;2.50;;;1.87;;
1475;SDS011;730;48.870;12.542;2023-07-02T05:40:11;2.13;;;1.93;;
1475;SDS011;730;48.870;12.542;2023-07-02T05:42:37;4.70;;;2.53;;
1475;SDS011;730;48.870;12.542;2023-07-02T05:45:03;4.33;;;2.50;;
1475;SDS011;730;48.870;12.542;2023-07-02T05:47:29;3.23;;;2.60;;
1475;SDS011;730;48.870;12.542;2023-07-02T05:49:56;2.93;;;2.40;;
1475;SDS011;730;48.870;12.542;2023-07-02T05:52:22;2.60;;;2.23;;
1475;SDS011;730;48.870;12.542;2023-07-02T05:54:49;3.83;;;2.37;;
1475;SDS011;730;48.870;12.542;2023-07-02T05:57:15;2.90;;;2.17;;
1475;SDS011;730;48.870;12.542;2023-07-02T05:59:41;2.53;;;1.80;;
1475;SDS011;730;48.870;12.542;2023-07-02T06:02:07;3.13;;;1.90;;
1475;SDS011;730;48.870;12.542;2023-07-02T06:04:33;2.13;;;1.93;;
1475;SDS011;730;48.870;12.542;2023-07-02T06:06:59;2.40;;;1.97;;
1475;SDS011;730;48.870;12.542;2023-07-02T06:09:25;2.60;;;2.00;;
1475;SDS011;730;48.870;12.542;2023-07-02T06:11:51;3.33;;;1.80;;
1475;SDS011;730;48.870;12.542;2023-07-02T06:14:17;4.17;;;2.47;;
1475;SDS011;730;48.870;12.542;2023-07-02T06:16:43;2.63;;;1.90;;
1475;SDS011;730;48.870;12.542;2023-07-02T06:19:09;2.40;;;2.17;;
1475;SDS011;730;48.870;12.542;2023-07-02T06:21:36;2.23;;;2.00;;
1475;SDS011;730;48.870;12.542;2023-07-02T06:24:02;2.10;;;1.90;;
1475;SDS011;730;48.870;12.542;2023-07-02T06:26:28;3.70;;;2.10;;
1475;SDS011;730;48.870;12.542;2023-07-02T06:28:55;2.57;;;2.07;;
1475;SDS011;730;48.870;12.542;2023-07-02T06:31:22;2.50;;;1.97;;
1475;SDS011;730;48.870;12.542;2023-07-02T06:33:48;3.97;;;3.60;;
1475;SDS011;730;48.870;12.542;2023-07-02T06:36:14;3.27;;;2.10;;
1475;SDS011;730;48.870;12.542;2023-07-02T06:38:41;3.20;;;2.07;;
1475;SDS011;730;48.870;12.542;2023-07-02T06:41:07;2.30;;;1.80;;
1475;SDS011;730;48.870;12.542;2023-07-02T06:43:33;3.13;;;2.00;;
1475;SDS011;730;48.870;12.542;2023-07-02T06:46:00;7.23;;;2.80;;
1475;SDS011;730;48.870;12.542;2023-07-02T06:48:26;2.73;;;2.10;;
1475;SDS011;730;48.870;12.542;2023-07-02T06:50:52;2.70;;;2.37;;
1475;SDS011;730;48.870;12.542;2023-07-02T06:53:18;2.60;;;1.93;;
1475;SDS011;730;48.870;12.542;2023-07-02T06:55:44;2.97;;;2.20;;
1475;SDS011;730;48.870;12.542;2023-07-02T06:58:10;2.97;;;2.20;;
1475;SDS011;730;48.870;12.542;2023-07-02T07:00:36;3.40;;;2.40;;
1475;SDS011;730;48.870;12.542;2023-07-02T07:03:03;3.33;;;2.70;;
1475;SDS011;730;48.870;12.542;2023-07-02T07:05:30;4.13;;;2.50;;
1475;SDS011;730;48.870;12.542;2023-07-02T07:07:56;3.77;;;2.43;;
1475;SDS011;730;48.870;12.542;2023-07-02T07:10:23;5.10;;;2.37;;
1475;SDS011;730;48.870;12.542;2023-07-02T07:12:49;4.03;;;2.33;;
1475;SDS011;730;48.870;12.542;2023-07-02T07:15:15;3.10;;;2.80;;
1475;SDS011;730;48.870;12.542;2023-07-02T07:17:42;2.93;;;2.63;;
1475;SDS011;730;48.870;12.542;2023-07-02T07:20:08;3.47;;;2.10;;
1475;SDS011;730;48.870;12.542;2023-07-02T07:22:35;5.77;;;2.83;;
1475;SDS011;730;48.870;12.542;2023-07-02T07:25:01;3.83;;;2.10;;
1475;SDS011;730;48.870;12.542;2023-07-02T07:27:28;3.27;;;2.60;;
1475;SDS011;730;48.870;12.542;2023-07-02T07:29:54;2.50;;;2.27;;
1475;SDS011;730;48.870;12.542;2023-07-02T07:32:20;3.50;;;2.10;;
1475;SDS011;730;48.870;12.542;2023-07-02T07:34:47;3.93;;;3.10;;
1475;SDS011;730;48.870;12.542;2023-07-02T07:37:13;3.83;;;3.10;;
1475;SDS011;730;48.870;12.542;2023-07-02T07:39:39;4.50;;;3.30;;
1475;SDS011;730;48.870;12.542;2023-07-02T07:42:05;6.73;;;2.90;;
1475;SDS011;730;48.870;12.542;2023-07-02T07:44:31;4.80;;;3.17;;
1475;SDS011;730;48.870;12.542;2023-07-02T07:46:57;5.10;;;3.30;;
1475;SDS011;730;48.870;12.542;2023-07-02T07:49:23;4.03;;;3.30;;
1475;SDS011;730;48.870;12.542;2023-07-02T07:51:49;3.90;;;3.23;;
1475;SDS011;730;48.870;12.542;2023-07-02T07:54:15;6.83;;;3.67;;
1475;SDS011;730;48.870;12.542;2023-07-02T07:56:41;5.33;;;4.00;;
1475;SDS011;730;48.870;12.542;2023-07-02T07:59:08;11.00;;;4.50;;
1475;SDS011;730;48.870;12.542;2023-07-02T08:01:34;3.73;;;3.30;;
1475;SDS011;730;48.870;12.542;2023-07-02T08:04:00;6.33;;;4.03;;
1475;SDS011;730;48.870;12.542;2023-07-02T08:06:26;6.40;;;4.53;;
1475;SDS011;730;48.870;12.542;2023-07-02T08:08:52;4.90;;;3.73;;
1475;SDS011;730;48.870;12.542;2023-07-02T08:11:18;7.63;;;5.37;;
1475;SDS011;730;48.870;12.542;2023-07-02T08:13:44;6.23;;;3.87;;
1475;SDS011;730;48.870;12.542;2023-07-02T08:16:10;7.63;;;3.90;;
1475;SDS011;730;48.870;12.542;2023-07-02T08:18:36;6.43;;;4.43;;
1475;SDS011;730;48.870;12.542;2023-07-02T08:21:02;6.73;;;4.30;;
1475;SDS011;730;48.870;12.542;2023-07-02T08:23:32;6.50;;;4.23;;
1475;SDS011;730;48.870;12.542;2023-07-02T08:25:58;7.00;;;4.47;;
1475;SDS011;730;48.870;12.542;2023-07-02T08:28:24;9.67;;;5.00;;
1475;SDS011;730;48.870;12.542;2023-07-02T08:30:50;6.33;;;4.67;;
1475;SDS011;730;48.870;12.542;2023-07-02T08:33:16;7.13;;;4.70;;
1475;SDS011;730;48.870;12.542;2023-07-02T08:35:42;6.47;;;4.63;;
1475;SDS011;730;48.870;12.542;2023-07-02T08:38:08;9.90;;;5.93;;
1475;SDS011;730;48.870;12.542;2023-07-02T08:40:34;5.27;;;4.70;;
1475;SDS011;730;48.870;12.542;2023-07-02T08:43:00;8.70;;;5.70;;
1475;SDS011;730;48.870;12.542;2023-07-02T08:45:26;6.00;;;4.90;;
1475;SDS011;730;48.870;12.542;2023-07-02T08:47:52;7.57;;;6.10;;
1475;SDS011;730;48.870;12.542;2023-07-02T08:50:23;7.17;;;5.60;;
1475;SDS011;730;48.870;12.542;2023-07-02T08:52:49;12.20;;;6.03;;
1475;SDS011;730;48.870;12.542;2023-07-02T08:55:15;9.10;;;5.60;;
1475;SDS011;730;48.870;12.542;2023-07-02T08:57:46;6.37;;;5.23;;
1475;SDS011;730;48.870;12.542;2023-07-02T09:00:15;7.40;;;5.30;;
1475;SDS011;730;48.870;12.542;2023-07-02T09:02:41;7.40;;;5.83;;
1475;SDS011;730;48.870;12.542;2023-07-02T09:05:07;5.27;;;4.60;;
1475;SDS011;730;48.870;12.542;2023-07-02T09:07:42;8.23;;;6.37;;
1475;SDS011;730;48.870;12.542;2023-07-02T09:10:12;7.27;;;5.60;;
1475;SDS011;730;48.870;12.542;2023-07-02T09:13:01;9.20;;;6.00;;
1475;SDS011;730;48.870;12.542;2023-07-02T09:15:38;8.63;;;6.03;;
1475;SDS011;730;48.870;12.542;2023-07-02T09:18:14;9.07;;;7.57;;
1475;SDS011;730;48.870;12.542;2023-07-02T09:20:45;6.40;;;5.40;;
1475;SDS011;730;48.870;12.542;2023-07-02T09:23:11;6.67;;;5.83;;
1475;SDS011;730;48.870;12.542;2023-07-02T09:25:38;13.07;;;9.83;;
1475;SDS011;730;48.870;12.542;2023-07-02T09:28:20;9.87;;;6.60;;
1475;SDS011;730;48.870;12.542;2023-07-02T09:30:48;8.40;;;6.73;;
1475;SDS011;730;48.870;12.542;2023-07-02T09:33:24;7.37;;;6.27;;
1475;SDS011;730;48.870;12.542;2023-07-02T09:35:51;9.77;;;7.17;;
1475;SDS011;730;48.870;12.542;2023-07-02T09:38:20;6.97;;;6.27;;
1475;SDS011;730;48.870;12.542;2023-07-02T09:40:50;7.97;;;7.10;;
1475;SDS011;730;48.870;12.542;2023-07-02T09:43:17;8.43;;;6.50;;
1475;SDS011;730;48.870;12.542;2023-07-02T09:45:45;9.70;;;6.93;;
1475;SDS011;730;48.870;12.542;2023-07-02T09:48:15;9.30;;;7.60;;
1475;SDS011;730;48.870;12.542;2023-07-02T09:50:46;10.97;;;7.43;;
1475;SDS011;730;48.870;12.542;2023-07-02T09:53:14;8.53;;;7.60;;
1475;SDS011;730;48.870;12.542;2023-07-02T09:55:43;8.20;;;7.33;;
1475;SDS011;730;48.870;12.542;2023-07-02T09:58:10;7.90;;;6.10;;
1475;SDS011;730;48.870;12.542;2023-07-02T10:00:39;7.83;;;7.03;;
1475;SDS011;730;48.870;12.542;2023-07-02T10:03:07;8.10;;;6.97;;
1475;SDS011;730;48.870;12.542;2023-07-02T10:05:33;10.83;;;7.13;;
1475;SDS011;730;48.870;12.542;2023-07-02T10:08:15;15.03;;;7.37;;
1475;SDS011;730;48.870;12.542;2023-07-02T10:10:44;10.37;;;6.47;;
1475;SDS011;730;48.870;12.542;2023-07-02T10:13:14;9.73;;;7.00;;
1475;SDS011;730;48.870;12.542;2023-07-02T10:15:40;14.13;;;7.60;;
1475;SDS011;730;48.870;12.542;2023-07-02T10:18:07;8.63;;;7.73;;
1475;SDS011;730;48.870;12.542;2023-07-02T10:23:04;9.53;;;7.23;;
1475;SDS011;730;48.870;12.542;2023-07-02T10:25:32;8.73;;;7.43;;
1475;SDS011;730;48.870;12.542;2023-07-02T10:28:00;10.03;;;8.03;;
1475;SDS011;730;48.870;12.542;2023-07-02T10:30:31;9.57;;;7.53;;
1475;SDS011;730;48.870;12.542;2023-07-02T10:35:38;9.70;;;7.97;;
1475;SDS011;730;48.870;12.542;2023-07-02T10:38:12;8.43;;;7.40;;
1475;SDS011;730;48.870;12.542;2023-07-02T10:40:42;12.10;;;7.70;;
1475;SDS011;730;48.870;12.542;2023-07-02T10:43:09;10.17;;;7.23;;
1475;SDS011;730;48.870;12.542;2023-07-02T10:45:35;13.83;;;7.37;;
1475;SDS011;730;48.870;12.542;2023-07-02T10:48:02;11.43;;;7.50;;
1475;SDS011;730;48.870;12.542;2023-07-02T10:50:30;9.63;;;8.00;;
1475;SDS011;730;48.870;12.542;2023-07-02T10:52:57;11.40;;;7.63;;
1475;SDS011;730;48.870;12.542;2023-07-02T10:55:24;9.77;;;7.07;;
1475;SDS011;730;48.870;12.542;2023-07-02T10:58:02;11.13;;;8.37;;
1475;SDS011;730;48.870;12.542;2023-07-02T11:00:32;10.40;;;7.90;;
1475;SDS011;730;48.870;12.542;2023-07-02T11:02:59;9.73;;;7.43;;
1475;SDS011;730;48.870;12.542;2023-07-02T11:05:28;9.53;;;8.10;;
1475;SDS011;730;48.870;12.542;2023-07-02T11:07:54;10.73;;;7.63;;
1475;SDS011;730;48.870;12.542;2023-07-02T11:10:22;10.87;;;7.50;;
1475;SDS011;730;48.870;12.542;2023-07-02T11:12:50;11.10;;;7.90;;
1475;SDS011;730;48.870;12.542;2023-07-02T11:15:16;9.17;;;6.90;;
1475;SDS011;730;48.870;12.542;2023-07-02T11:17:46;11.03;;;7.90;;
1475;SDS011;730;48.870;12.542;2023-07-02T11:20:13;8.50;;;7.10;;
1475;SDS011;730;48.870;12.542;2023-07-02T11:22:40;8.33;;;7.53;;
1475;SDS011;730;48.870;12.542;2023-07-02T11:25:13;8.57;;;7.47;;
1475;SDS011;730;48.870;12.542;2023-07-02T11:27:44;8.30;;;7.00;;
1475;SDS011;730;48.870;12.542;2023-07-02T11:30:10;8.83;;;6.97;;
1475;SDS011;730;48.870;12.542;2023-07-02T11:32:47;12.37;;;7.33;;
1475;SDS011;730;48.870;12.542;2023-07-02T11:35:18;7.90;;;7.00;;
1475;SDS011;730;48.870;12.542;2023-07-02T11:37:44;8.87;;;7.37;;
1475;SDS011;730;48.870;12.542;2023-07-02T11:40:11;9.07;;;7.23;;
1475;SDS011;730;48.870;12.542;2023-07-02T11:42:39;8.20;;;6.80;;
1475;SDS011;730;48.870;12.542;2023-07-02T11:45:05;8.83;;;6.97;;
1475;SDS011;730;48.870;12.542;2023-07-02T11:47:31;7.53;;;6.67;;
1475;SDS011;730;48.870;12.542;2023-07-02T11:49:57;7.00;;;6.30;;
1475;SDS011;730;48.870;12.542;2023-07-02T11:52:25;11.27;;;7.00;;
1475;SDS011;730;48.870;12.542;2023-07-02T11:54:51;8.20;;;6.60;;
1475;SDS011;730;48.870;12.542;2023-07-02T11:57:17;8.13;;;7.33;;
1475;SDS011;730;48.870;12.542;2023-07-02T11:59:43;11.00;;;7.43;;
1475;SDS011;730;48.870;12.542;2023-07-02T12:02:10;9.30;;;7.50;;
1475;SDS011;730;48.870;12.542;2023-07-02T12:04:36;11.10;;;7.30;;
1475;SDS011;730;48.870;12.542;2023-07-02T12:07:02;9.60;;;7.20;;
1475;SDS011;730;48.870;12.542;2023-07-02T12:09:29;10.17;;;7.97;;
1475;SDS011;730;48.870;12.542;2023-07-02T12:11:55;8.03;;;6.83;;
1475;SDS011;730;48.870;12.542;2023-07-02T12:14:21;9.17;;;8.07;;
1475;SDS011;730;48.870;12.542;2023-07-02T12:16:47;9.20;;;7.67;;
1475;SDS011;730;48.870;12.542;2023-07-02T12:19:13;9.47;;;7.10;;
1475;SDS011;730;48.870;12.542;2023-07-02T12:21:39;8.27;;;7.47;;
1475;SDS011;730;48.870;12.542;2023-07-02T12:24:05;6.53;;;5.83;;
1475;SDS011;730;48.870;12.542;2023-07-02T12:26:36;10.50;;;8.50;;
1475;SDS011;730;48.870;12.542;2023-07-02T12:29:03;9.80;;;7.33;;
1475;SDS011;730;48.870;12.542;2023-07-02T12:31:30;8.40;;;7.40;;
1475;SDS011;730;48.870;12.542;2023-07-02T12:33:56;7.67;;;6.40;;
1475;SDS011;730;48.870;12.542;2023-07-02T12:36:22;9.97;;;7.40;;
1475;SDS011;730;48.870;12.542;2023-07-02T12:38:48;7.80;;;6.77;;
1475;SDS011;730;48.870;12.542;2023-07-02T12:41:14;9.33;;;6.97;;
1475;SDS011;730;48.870;12.542;2023-07-02T12:43:40;8.63;;;7.70;;
1475;SDS011;730;48.870;12.542;2023-07-02T12:46:06;8.33;;;6.97;;
1475;SDS011;730;48.870;12.542;2023-07-02T12:48:32;8.83;;;7.73;;
1475;SDS011;730;48.870;12.542;2023-07-02T12:50:59;8.13;;;7.33;;
1475;SDS011;730;48.870;12.542;2023-07-02T12:53:26;8.63;;;6.63;;
1475;SDS011;730;48.870;12.542;2023-07-02T12:55:53;7.50;;;6.70;;
1475;SDS011;730;48.870;12.542;2023-07-02T12:58:20;9.50;;;6.70;;
1475;SDS011;730;48.870;12.542;2023-07-02T13:00:46;8.70;;;6.60;;
1475;SDS011;730;48.870;12.542;2023-07-02T13:03:16;8.10;;;7.30;;
1475;SDS011;730;48.870;12.542;2023-07-02T13:05:43;11.20;;;7.47;;
1475;SDS011;730;48.870;12.542;2023-07-02T13:08:09;8.60;;;6.60;;
1475;SDS011;730;48.870;12.542;2023-07-02T13:10:36;10.53;;;7.10;;
1475;SDS011;730;48.870;12.542;2023-07-02T13:13:03;8.00;;;7.13;;
1475;SDS011;730;48.870;12.542;2023-07-02T13:15:29;8.03;;;7.27;;
1475;SDS011;730;48.870;12.542;2023-07-02T13:17:55;7.57;;;6.53;;
1475;SDS011;730;48.870;12.542;2023-07-02T13:20:21;7.60;;;6.80;;
1475;SDS011;730;48.870;12.542;2023-07-02T13:22:47;8.97;;;8.00;;
1475;SDS011;730;48.870;12.542;2023-07-02T13:25:13;9.50;;;8.47;;
1475;SDS011;730;48.870;12.542;2023-07-02T13:27:39;7.20;;;6.50;;
1475;SDS011;730;48.870;12.542;2023-07-02T13:30:05;6.93;;;6.20;;
1475;SDS011;730;48.870;12.542;2023-07-02T13:32:31;9.97;;;6.10;;
1475;SDS011;730;48.870;12.542;2023-07-02T13:34:57;8.30;;;6.27;;
1475;SDS011;730;48.870;12.542;2023-07-02T13:37:30;8.47;;;6.70;;
1475;SDS011;730;48.870;12.542;2023-07-02T13:39:56;8.23;;;7.27;;
1475;SDS011;730;48.870;12.542;2023-07-02T13:42:22;7.57;;;6.60;;
1475;SDS011;730;48.870;12.542;2023-07-02T13:44:48;10.20;;;8.30;;
1475;SDS011;730;48.870;12.542;2023-07-02T13:47:15;7.80;;;7.10;;
1475;SDS011;730;48.870;12.542;2023-07-02T13:49:41;7.07;;;6.33;;
1475;SDS011;730;48.870;12.542;2023-07-02T13:52:07;9.30;;;6.97;;
1475;SDS011;730;48.870;12.542;2023-07-02T13:54:33;7.57;;;6.30;;
1475;SDS011;730;48.870;12.542;2023-07-02T13:56:59;6.87;;;6.13;;
1475;SDS011;730;48.870;12.542;2023-07-02T13:59:26;6.60;;;5.90;;
1475;SDS011;730;48.870;12.542;2023-07-02T14:01:52;6.63;;;6.03;;
1475;SDS011;730;48.870;12.542;2023-07-02T14:04:18;8.30;;;5.77;;
1475;SDS011;730;48.870;12.542;2023-07-02T14:06:44;7.17;;;6.17;;
1475;SDS011;730;48.870;12.542;2023-07-02T14:09:11;7.77;;;7.00;;
1475;SDS011;730;48.870;12.542;2023-07-02T14:11:38;7.03;;;6.40;;
1475;SDS011;730;48.870;12.542;2023-07-02T14:14:05;7.30;;;6.60;;
1475;SDS011;730;48.870;12.542;2023-07-02T14:16:32;8.30;;;6.03;;
1475;SDS011;730;48.870;12.542;2023-07-02T14:18:58;7.43;;;6.63;;
1475;SDS011;730;48.870;12.542;2023-07-02T14:21:24;7.30;;;6.37;;
1475;SDS011;730;48.870;12.542;2023-07-02T14:23:50;8.13;;;7.20;;
1475;SDS011;730;48.870;12.542;2023-07-02T14:26:16;7.40;;;6.80;;
1475;SDS011;730;48.870;12.542;2023-07-02T14:28:42;8.93;;;6.53;;
1475;SDS011;730;48.870;12.542;2023-07-02T14:31:08;6.70;;;6.10;;
1475;SDS011;730;48.870;12.542;2023-07-02T14:33:35;7.57;;;6.50;;
1475;SDS011;730;48.870;12.542;2023-07-02T14:36:03;7.60;;;5.80;;
1475;SDS011;730;48.870;12.542;2023-07-02T14:38:29;7.60;;;6.90;;
1475;SDS011;730;48.870;12.542;2023-07-02T14:40:56;7.27;;;6.60;;
1475;SDS011;730;48.870;12.542;2023-07-02T14:43:23;7.07;;;6.37;;
1475;SDS011;730;48.870;12.542;2023-07-02T14:45:52;7.73;;;6.63;;
1475;SDS011;730;48.870;12.542;2023-07-02T14:48:19;7.50;;;6.73;;
1475;SDS011;730;48.870;12.542;2023-07-02T14:50:49;7.37;;;6.33;;
1475;SDS011;730;48.870;12.542;2023-07-02T14:53:17;7.63;;;6.93;;
1475;SDS011;730;48.870;12.542;2023-07-02T14:55:43;8.73;;;7.67;;
1475;SDS011;730;48.870;12.542;2023-07-02T14:58:10;11.00;;;7.90;;
1475;SDS011;730;48.870;12.542;2023-07-02T15:00:43;8.50;;;7.20;;
1475;SDS011;730;48.870;12.542;2023-07-02T15:03:11;7.90;;;7.10;;
1475;SDS011;730;48.870;12.542;2023-07-02T15:05:37;7.27;;;6.57;;
1475;SDS011;730;48.870;12.542;2023-07-02T15:08:03;9.33;;;8.37;;
1475;SDS011;730;48.870;12.542;2023-07-02T15:10:29;7.80;;;7.10;;
1475;SDS011;730;48.870;12.542;2023-07-02T15:12:55;8.00;;;6.67;;
1475;SDS011;730;48.870;12.542;2023-07-02T15:15:21;7.90;;;7.10;;
1475;SDS011;730;48.870;12.542;2023-07-02T15:17:50;8.27;;;7.30;;
1475;SDS011;730;48.870;12.542;2023-07-02T15:20:16;9.57;;;8.33;;